Izumi, Japan
Current Conditions -  °F | °C
As of 3:00 AM on Tuesday 21 Oct 2014 (Local Time) from RJBB Reporting Station
Rain Showers Rain Showers  
Wind Chill: 68°   Ceiling: 10000
Heat Index: 68°   Visibility: 6mi
Dew Point: 64°   Wind: 3mph
Humidity: 88%   Direction: 90°E
Pressure: 30.06"   Gusts: NA
Location:  34.48°N, 135.42°E
Report Text: RJBB 201800Z 09003KT 9999 VCSH FEW015 SCT025 BKN100 20/18 Q1018 NOSIG
Loading
Personal Weather Stations






























Interactive Weather Map
Tropical Storm Tracking
New forecast layout! Learn more

10-Day Weather Forecast

Advertisements
Track Severe Weather on mobile